Time;durP1;ratioP1;P1;durP2;ratioP2;P2;SDS_P1;SDS_P2;PMS_P1;PMS_P2;Temp;Humidity;BMP_temperature;BMP_pressure;BME280_temperature;BME280_humidity;BME280_pressure;Samples;Min_cycle;Max_cycle;Signal;HPM_P1;HPM_P2
2021/12/07 00:02:32;;;;;;;41.88;23.15;;;;;;;-0.23;100.00;97729.28;10416908;28;20494;-81
2021/12/07 00:07:36;;;;;;;40.22;21.60;;;;;;;-0.22;100.00;97715.09;10410023;28;20520;-80
2021/12/07 00:12:42;;;;;;;40.80;22.42;;;;;;;-0.23;100.00;97701.00;10406052;28;20421;-80
2021/12/07 00:17:46;;;;;;;33.97;19.75;;;;;;;-0.27;100.00;97696.03;10407634;28;20072;-81
2021/12/07 00:22:57;;;;;;;36.95;19.25;;;;;;;-0.29;100.00;97690.03;10420573;28;20056;-80
2021/12/07 00:28:00;;;;;;;30.47;17.13;;;;;;;-0.33;100.00;97686.75;10404781;28;20055;-80
2021/12/07 00:33:12;;;;;;;28.02;15.80;;;;;;;-0.36;100.00;97679.88;10384700;28;20109;-80
2021/12/07 00:38:18;;;;;;;26.80;14.88;;;;;;;-0.36;100.00;97681.69;10328164;28;20050;-80
2021/12/07 00:43:21;;;;;;;19.52;12.60;;;;;;;-0.38;100.00;97675.66;10327229;28;20086;-80
2021/12/07 00:48:26;;;;;;;21.08;13.63;;;;;;;-0.38;100.00;97675.66;10331381;28;20041;-82
2021/12/07 00:53:30;;;;;;;19.27;12.68;;;;;;;-0.36;100.00;97676.41;10326431;28;20209;-82
2021/12/07 00:58:36;;;;;;;17.70;12.20;;;;;;;-0.35;100.00;97670.97;10329983;28;20050;-80
2021/12/07 01:03:41;;;;;;;18.70;12.52;;;;;;;-0.33;100.00;97668.22;10330151;28;20050;-82
2021/12/07 01:09:08;;;;;;;18.00;12.52;;;;;;;-0.30;100.00;97664.53;10336251;28;20053;-81
2021/12/07 01:24:56;;;;;;;16.05;10.63;;;;;;;-0.16;100.00;97646.66;10374202;28;20031;-80
2021/12/07 01:30:09;;;;;;;16.80;11.23;;;;;;;-0.15;100.00;97636.91;10341462;28;20042;-83
2021/12/07 01:40:48;;;;;;;14.75;10.43;;;;;;;-0.11;100.00;97611.03;10334763;28;20078;-81
2021/12/07 01:46:23;;;;;;;18.35;11.70;;;;;;;-0.15;100.00;97599.84;10323080;28;20054;-82
2021/12/07 01:51:46;;;;;;;18.55;12.60;;;;;;;-0.19;100.00;97587.81;10329853;28;20053;-82
2021/12/07 02:02:23;;;;;;;18.80;12.10;;;;;;;-0.26;100.00;97578.63;10234389;28;20059;-81
2021/12/07 02:07:29;;;;;;;18.75;11.65;;;;;;;-0.28;100.00;97562.00;10322430;28;20513;-81
2021/12/07 02:12:41;;;;;;;17.30;11.95;;;;;;;-0.27;100.00;97553.09;10323905;28;20450;-81
2021/12/07 02:17:45;;;;;;;21.38;14.18;;;;;;;-0.30;100.00;97540.13;10323654;28;20046;-80
2021/12/07 02:22:50;;;;;;;23.63;14.52;;;;;;;-0.32;100.00;97538.44;10327839;28;20057;-80
2021/12/07 02:27:56;;;;;;;22.88;15.02;;;;;;;-0.34;100.00;97540.34;10330650;28;20124;-80
2021/12/07 02:32:59;;;;;;;23.90;15.82;;;;;;;-0.35;100.00;97532.50;10326651;28;20133;-80
2021/12/07 02:38:04;;;;;;;22.83;15.52;;;;;;;-0.34;100.00;97537.69;10330917;28;20042;-81
2021/12/07 02:43:10;;;;;;;21.50;14.65;;;;;;;-0.35;100.00;97535.16;10329815;28;20497;-81
2021/12/07 02:48:13;;;;;;;22.83;15.73;;;;;;;-0.33;100.00;97534.09;10328487;28;20081;-82
2021/12/07 02:53:26;;;;;;;23.70;16.63;;;;;;;-0.32;100.00;97529.63;10328171;28;20046;-82
2021/12/07 02:58:31;;;;;;;24.52;17.52;;;;;;;-0.33;100.00;97533.22;10327506;28;20050;-81
2021/12/07 03:03:39;;;;;;;27.17;19.73;;;;;;;-0.32;100.00;97538.44;10328449;28;20518;-83
2021/12/07 03:30:20;;;;;;;28.58;19.20;;;;;;;-0.34;100.00;97519.16;10331120;28;20396;-81
2021/12/07 03:35:23;;;;;;;27.35;19.05;;;;;;;-0.35;100.00;97509.53;10341065;28;20054;-81
2021/12/07 03:40:30;;;;;;;25.48;18.13;;;;;;;-0.33;100.00;97523.50;10351985;28;20050;-81
2021/12/07 03:45:34;;;;;;;26.02;17.98;;;;;;;-0.33;100.00;97515.56;10341436;28;20050;-80
2021/12/07 03:50:38;;;;;;;29.38;19.08;;;;;;;-0.33;100.00;97528.81;10329379;28;20155;-80
2021/12/07 03:55:46;;;;;;;29.20;19.35;;;;;;;-0.32;100.00;97519.91;10327768;28;20338;-81
2021/12/07 04:00:50;;;;;;;30.23;20.08;;;;;;;-0.34;100.00;97527.13;10325121;28;20058;-80
2021/12/07 04:05:55;;;;;;;28.38;19.70;;;;;;;-0.33;100.00;97522.66;10329146;28;20073;-84
2021/12/07 04:11:01;;;;;;;29.40;18.77;;;;;;;-0.32;100.00;97519.91;10329495;28;20160;-82
2021/12/07 04:16:08;;;;;;;30.95;19.48;;;;;;;-0.29;100.00;97510.06;10327393;28;20057;-81
2021/12/07 04:21:13;;;;;;;28.15;19.85;;;;;;;-0.27;100.00;97513.41;10325963;28;20295;-81
2021/12/07 04:26:19;;;;;;;29.00;19.88;;;;;;;-0.25;100.00;97519.44;10328379;28;20411;-82
2021/12/07 04:31:22;;;;;;;30.80;20.50;;;;;;;-0.23;100.00;97512.22;10340267;23;20058;-60
2021/12/07 04:36:25;;;;;;;29.65;19.95;;;;;;;-0.20;100.00;97517.28;10313538;28;20043;-64
2021/12/07 04:41:32;;;;;;;29.13;19.77;;;;;;;-0.18;100.00;97513.56;10304350;28;20055;-61
2021/12/07 04:46:42;;;;;;;28.95;19.27;;;;;;;-0.14;100.00;97513.34;10311849;28;20047;-60
2021/12/07 05:02:29;;;;;;;27.13;19.02;;;;;;;-0.02;100.00;97510.59;10404010;28;20057;-57
2021/12/07 05:07:37;;;;;;;26.52;18.15;;;;;;;0.06;100.00;97517.13;10412882;28;20112;-54
2021/12/07 05:12:56;;;;;;;25.90;17.95;;;;;;;0.10;100.00;97503.53;10379646;28;20121;-56
2021/12/07 05:18:09;;;;;;;24.67;17.55;;;;;;;0.14;100.00;97504.13;10380246;28;20470;-60
2021/12/07 05:39:18;;;;;;;24.02;15.90;;;;;;;0.22;100.00;97488.47;10370638;28;20120;-57
2021/12/07 05:44:22;;;;;;;24.00;17.63;;;;;;;0.23;100.00;97484.88;10378668;28;20042;-58
2021/12/07 05:49:50;;;;;;;25.05;17.13;;;;;;;0.24;100.00;97483.03;10364239;28;20153;-56
2021/12/07 05:54:53;;;;;;;23.77;17.17;;;;;;;0.23;100.00;97481.38;10394251;28;20167;-55
2021/12/07 05:59:58;;;;;;;22.92;15.77;;;;;;;0.21;100.00;97486.78;10400420;28;20144;-58
2021/12/07 06:05:01;;;;;;;23.65;16.67;;;;;;;0.19;100.00;97488.69;10390707;28;20053;-56
2021/12/07 06:10:05;;;;;;;26.65;17.20;;;;;;;0.15;100.00;97489.91;10397177;28;20125;-57
2021/12/07 06:15:12;;;;;;;25.55;16.98;;;;;;;0.14;100.00;97488.22;10388435;28;20206;-53
2021/12/07 06:20:16;;;;;;;24.35;16.92;;;;;;;0.15;100.00;97497.88;10387393;28;20057;-54
2021/12/07 06:25:39;;;;;;;25.73;17.15;;;;;;;0.12;100.00;97498.94;10389632;28;20059;-57
2021/12/07 06:30:45;;;;;;;24.83;16.27;;;;;;;0.08;100.00;97504.56;10386263;28;20046;-60
2021/12/07 06:35:50;;;;;;;23.38;15.45;;;;;;;0.07;100.00;97513.47;10390525;28;20133;-57
2021/12/07 06:40:53;;;;;;;23.85;16.67;;;;;;;0.04;100.00;97513.75;10386652;28;20100;-57
2021/12/07 06:45:58;;;;;;;27.00;16.90;;;;;;;0.04;100.00;97513.75;10388553;28;20096;-57
2021/12/07 06:51:02;;;;;;;21.77;16.08;;;;;;;0.01;100.00;97513.97;10387529;28;20049;-55
2021/12/07 06:56:07;;;;;;;24.50;16.77;;;;;;;-0.01;100.00;97512.28;10384294;28;20052;-55
2021/12/07 07:01:11;;;;;;;23.77;16.23;;;;;;;-0.02;100.00;97521.19;10391478;28;20065;-58
2021/12/07 07:06:15;;;;;;;24.25;16.27;;;;;;;0.00;100.00;97531.66;10410379;28;20437;-59
2021/12/07 07:11:19;;;;;;;22.15;15.20;;;;;;;-0.02;100.00;97531.78;10421072;28;20049;-60
2021/12/07 07:16:24;;;;;;;24.58;16.48;;;;;;;-0.03;100.00;97543.31;10423098;28;20207;-59
2021/12/07 07:21:27;;;;;;;21.45;14.75;;;;;;;-0.04;100.00;97543.44;10423427;28;21357;-59
2021/12/07 07:26:30;;;;;;;20.90;14.75;;;;;;;-0.04;100.00;97554.03;10422563;28;20045;-61
2021/12/07 07:31:36;;;;;;;22.42;14.38;;;;;;;-0.03;100.00;97564.50;10423640;28;20045;-57
2021/12/07 07:36:40;;;;;;;21.40;14.98;;;;;;;-0.01;100.00;97570.53;10422789;28;20056;-58
2021/12/07 07:41:43;;;;;;;22.98;14.98;;;;;;;0.04;100.00;97566.69;10422383;28;20171;-60
2021/12/07 07:46:48;;;;;;;20.80;14.13;;;;;;;0.07;100.00;97577.91;10425603;28;20052;-57
2021/12/07 07:51:51;;;;;;;23.13;14.20;;;;;;;0.10;100.00;97588.28;10419516;28;20048;-60
2021/12/07 07:56:54;;;;;;;22.33;14.57;;;;;;;0.16;100.00;97589.59;10419989;28;20766;-62
2021/12/07 08:01:59;;;;;;;22.13;14.52;;;;;;;0.20;100.00;97598.16;10421936;28;20064;-64
2021/12/07 08:07:02;;;;;;;21.17;14.48;;;;;;;0.23;100.00;97593.47;10419593;28;20119;-59
2021/12/07 08:12:06;;;;;;;19.77;13.68;;;;;;;0.30;100.00;97599.16;10423257;28;20056;-61
2021/12/07 08:17:11;;;;;;;17.23;12.52;;;;;;;0.36;100.00;97592.53;10417577;28;20162;-61
2021/12/07 08:22:14;;;;;;;17.13;12.63;;;;;;;0.41;100.00;97601.81;10422342;28;20128;-61
2021/12/07 08:27:17;;;;;;;17.15;12.27;;;;;;;0.47;100.00;97604.97;10421720;28;20045;-61
2021/12/07 08:32:33;;;;;;;16.05;12.10;;;;;;;0.51;100.00;97604.63;10421775;28;20532;-60
2021/12/07 08:37:36;;;;;;;17.73;11.95;;;;;;;0.55;100.00;97616.66;10420702;28;20095;-60
2021/12/07 08:42:39;;;;;;;18.25;12.98;;;;;;;0.59;100.00;97623.41;10419561;28;20067;-60
2021/12/07 08:47:44;;;;;;;15.32;11.43;;;;;;;0.65;100.00;97621.25;10416951;28;20580;-59
2021/12/07 08:52:48;;;;;;;16.42;11.45;;;;;;;0.70;100.00;97616.44;10420825;28;20045;-55
2021/12/07 09:03:13;;;;;;;15.23;11.13;;;;;;;0.81;100.00;97631.53;10420147;28;20057;-59
2021/12/07 09:08:17;;;;;;;14.85;10.73;;;;;;;0.84;100.00;97642.72;10418925;28;20049;-60
2021/12/07 09:13:23;;;;;;;13.10;9.93;;;;;;;0.90;100.00;97642.22;10421272;28;20057;-60
2021/12/07 09:18:28;;;;;;;12.30;9.15;;;;;;;0.98;100.00;97646.13;10415734;28;20041;-58
2021/12/07 09:23:31;;;;;;;12.98;9.57;;;;;;;1.02;100.00;97648.41;10417601;28;20059;-59
2021/12/07 09:28:34;;;;;;;13.27;9.70;;;;;;;1.06;100.00;97662.25;10423090;28;20052;-58
2021/12/07 09:33:42;;;;;;;12.18;9.35;;;;;;;1.12;100.00;97667.06;10431207;28;20150;-58
2021/12/07 09:38:45;;;;;;;12.13;9.05;;;;;;;1.17;100.00;97661.44;10431284;28;20173;-57
2021/12/07 09:43:48;;;;;;;13.20;8.90;;;;;;;1.18;100.00;97663.94;10428503;28;20120;-58
2021/12/07 09:48:53;;;;;;;11.00;8.70;;;;;;;1.22;100.00;97661.91;10429507;28;20055;-60
2021/12/07 09:53:59;;;;;;;11.98;9.10;;;;;;;1.23;100.00;97661.75;10424924;28;20607;-59
2021/12/07 09:59:04;;;;;;;10.45;8.32;;;;;;;1.29;100.00;97676.38;10427605;28;20079;-59
2021/12/07 10:04:08;;;;;;;12.20;8.65;;;;;;;1.35;100.00;97680.38;10428364;28;20493;-59
2021/12/07 10:09:11;;;;;;;11.73;8.88;;;;;;;1.37;100.00;97676.63;10426640;28;20056;-57
2021/12/07 10:14:14;;;;;;;12.77;9.63;;;;;;;1.41;100.00;97666.59;10426973;28;20155;-59
2021/12/07 10:19:28;;;;;;;12.93;8.75;;;;;;;1.47;100.00;97674.06;10424670;28;20068;-59
2021/12/07 10:24:45;;;;;;;10.57;7.70;;;;;;;1.53;100.00;97678.03;10423550;28;20045;-56
2021/12/07 10:29:52;;;;;;;10.88;8.27;;;;;;;1.59;100.00;97676.72;10427545;28;20128;-57
2021/12/07 10:34:57;;;;;;;11.35;8.38;;;;;;;1.63;100.00;97680.81;10419652;28;20053;-60
2021/12/07 10:40:00;;;;;;;10.10;8.07;;;;;;;1.67;100.00;97684.91;10422903;28;20120;-59
2021/12/07 10:45:06;;;;;;;9.70;7.25;;;;;;;1.67;100.00;97679.59;10424597;28;20055;-59
2021/12/07 10:50:15;;;;;;;8.43;7.05;;;;;;;1.71;100.00;97681.00;10425633;28;20037;-59
2021/12/07 10:55:20;;;;;;;8.98;7.15;;;;;;;1.72;100.00;97679.22;10422112;28;20057;-58
2021/12/07 11:00:26;;;;;;;8.45;6.70;;;;;;;1.75;100.00;97677.16;10394959;22;20062;-60
2021/12/07 11:05:33;;;;;;;8.88;6.50;;;;;;;1.79;100.00;97683.06;10364689;28;20045;-63
2021/12/07 11:10:39;;;;;;;8.25;5.95;;;;;;;1.82;100.00;97683.66;10353273;28;20545;-62
2021/12/07 11:15:49;;;;;;;7.57;5.63;;;;;;;1.82;100.00;97683.66;10348943;28;20054;-63
2021/12/07 11:20:56;;;;;;;7.87;5.80;;;;;;;1.79;100.00;97689.22;10349557;28;20037;-63
2021/12/07 11:31:30;;;;;;;8.43;6.45;;;;;;;1.77;100.00;97688.50;10350204;28;20049;-64
2021/12/07 11:36:39;;;;;;;6.57;5.60;;;;;;;1.78;100.00;97684.88;10347876;28;20054;-61
2021/12/07 11:41:42;;;;;;;7.00;5.53;;;;;;;1.78;100.00;97697.31;10348753;28;20149;-64
2021/12/07 11:46:49;;;;;;;6.22;5.22;;;;;;;1.78;100.00;97697.31;10348642;28;20042;-64
2021/12/07 11:51:56;;;;;;;6.55;5.82;;;;;;;1.72;100.00;97700.47;10348333;28;20510;-67
2021/12/07 11:57:02;;;;;;;7.68;5.68;;;;;;;1.71;100.00;97707.56;10348273;28;20045;-64
2021/12/07 12:02:06;;;;;;;6.90;6.10;;;;;;;1.70;100.00;97705.91;10346858;28;20042;-63
2021/12/07 12:07:11;;;;;;;8.35;6.30;;;;;;;1.72;100.00;97713.75;10347990;28;20050;-66
2021/12/07 12:12:21;;;;;;;6.70;5.80;;;;;;;1.69;100.00;97720.16;10349516;28;20044;-58
2021/12/07 12:17:38;;;;;;;7.03;6.32;;;;;;;1.65;100.00;97718.69;10348543;28;20109;-57
2021/12/07 12:22:48;;;;;;;8.30;6.35;;;;;;;1.67;100.00;97722.91;10348866;28;20041;-64
2021/12/07 12:28:23;;;;;;;7.43;6.30;;;;;;;1.73;100.00;97708.28;10346748;28;20050;-61
2021/12/07 12:33:43;;;;;;;6.97;6.28;;;;;;;1.77;100.00;97722.16;10343885;28;20054;-64
2021/12/07 12:38:57;;;;;;;7.35;6.13;;;;;;;1.76;100.00;97742.59;10348171;28;20046;-63
2021/12/07 12:44:09;;;;;;;6.18;5.47;;;;;;;1.73;100.00;97734.84;10361777;28;20054;-62
2021/12/07 12:49:13;;;;;;;7.18;6.30;;;;;;;1.77;100.00;97736.31;10347829;28;20048;-60
2021/12/07 12:54:18;;;;;;;6.70;6.03;;;;;;;1.80;100.00;97737.88;10347845;28;20053;-65
2021/12/07 12:59:22;;;;;;;6.20;5.40;;;;;;;1.84;100.00;97740.16;10349838;28;20481;-64
2021/12/07 13:04:28;;;;;;;7.25;6.15;;;;;;;1.87;100.00;97743.53;10348218;28;20057;-64
2021/12/07 13:09:43;;;;;;;8.32;5.40;;;;;;;1.91;100.00;97735.19;10349099;28;20046;-66
2021/12/07 13:14:58;;;;;;;7.25;6.20;;;;;;;1.92;100.00;97744.03;10348641;28;20048;-62
2021/12/07 13:20:29;;;;;;;7.93;6.28;;;;;;;1.91;100.00;97737.00;10346243;28;20057;-64
2021/12/07 13:25:36;;;;;;;6.18;4.72;;;;;;;1.89;100.00;97742.44;10346753;28;20173;-64
2021/12/07 13:30:49;;;;;;;5.75;4.95;;;;;;;1.90;100.00;97753.91;10348118;28;20049;-63
2021/12/07 13:35:54;;;;;;;6.68;5.10;;;;;;;1.91;100.00;97740.50;10345121;28;20053;-64
2021/12/07 13:41:20;;;;;;;6.43;5.13;;;;;;;1.92;100.00;97738.69;10346600;28;20064;-65
2021/12/07 13:46:26;;;;;;;5.00;4.47;;;;;;;1.88;100.00;97750.53;10346641;28;20813;-65
2021/12/07 13:51:29;;;;;;;7.00;5.10;;;;;;;1.88;100.00;97758.50;10366035;28;20348;-61
2021/12/07 13:56:36;;;;;;;5.53;5.03;;;;;;;1.89;100.00;97747.75;10353116;28;20418;-61
2021/12/07 14:01:42;;;;;;;6.53;4.50;;;;;;;1.88;100.00;97756.72;10381272;28;20077;-58
2021/12/07 14:06:47;;;;;;;5.53;5.03;;;;;;;1.90;100.00;97754.75;10371151;28;20058;-68
2021/12/07 14:11:53;;;;;;;5.93;5.30;;;;;;;1.89;100.00;97741.59;10361604;28;20051;-63
2021/12/07 14:16:59;;;;;;;5.30;4.80;;;;;;;1.89;100.00;97757.53;10348428;28;20049;-64
2021/12/07 14:22:03;;;;;;;5.22;4.72;;;;;;;1.89;100.00;97746.91;10352290;28;20038;-64
2021/12/07 14:27:08;;;;;;;5.95;5.30;;;;;;;1.89;100.00;97746.91;10352023;28;20052;-63
2021/12/07 14:32:11;;;;;;;5.60;4.70;;;;;;;1.88;100.00;97754.06;10351414;28;20048;-64
2021/12/07 14:37:14;;;;;;;6.32;5.45;;;;;;;1.88;100.00;97739.91;10351750;28;20167;-64
2021/12/07 14:42:21;;;;;;;6.90;5.68;;;;;;;1.88;100.00;97750.53;10349754;28;20139;-64
2021/12/07 14:47:24;;;;;;;6.03;5.43;;;;;;;1.82;100.00;97747.38;10350743;28;20056;-63
2021/12/07 14:52:29;;;;;;;6.03;5.43;;;;;;;1.80;100.00;97757.31;10350324;28;20072;-63
2021/12/07 14:57:37;;;;;;;8.00;5.50;;;;;;;1.75;100.00;97762.13;10349882;28;20058;-61
2021/12/07 15:02:41;;;;;;;8.20;7.20;;;;;;;1.75;100.00;97756.81;10351272;28;20042;-64
2021/12/07 15:07:45;;;;;;;11.95;10.43;;;;;;;1.72;100.00;97761.53;10350440;28;20117;-62
2021/12/07 15:12:49;;;;;;;11.80;9.95;;;;;;;1.70;100.00;97774.94;10348317;28;20050;-64
2021/12/07 15:17:52;;;;;;;12.45;10.60;;;;;;;1.71;100.00;97768.63;10364782;28;20870;-64
2021/12/07 15:22:55;;;;;;;12.70;10.70;;;;;;;1.71;100.00;97758.03;10349445;28;20042;-63
2021/12/07 15:28:00;;;;;;;9.77;8.50;;;;;;;1.74;100.00;97768.41;10349561;28;20046;-59
2021/12/07 15:33:03;;;;;;;9.27;8.00;;;;;;;1.74;100.00;97757.78;10348418;28;20045;-63
2021/12/07 15:38:06;;;;;;;8.48;7.55;;;;;;;1.76;100.00;97769.13;10349647;28;20046;-62
2021/12/07 15:43:11;;;;;;;9.18;7.28;;;;;;;1.77;100.00;97754.91;10349623;28;20042;-65
2021/12/07 15:48:14;;;;;;;9.68;7.47;;;;;;;1.76;100.00;97758.50;10346632;28;20132;-64
2021/12/07 15:53:18;;;;;;;10.07;7.95;;;;;;;1.74;100.00;97749.00;10348912;28;20504;-64
2021/12/07 15:58:25;;;;;;;8.57;7.63;;;;;;;1.72;100.00;97729.66;10348233;28;20049;-64
2021/12/07 16:03:31;;;;;;;8.55;7.03;;;;;;;1.69;100.00;97728.94;10348637;28;20049;-62
2021/12/07 16:08:37;;;;;;;9.27;7.60;;;;;;;1.68;100.00;97724.59;10348492;28;20042;-60
2021/12/07 16:13:45;;;;;;;8.70;7.60;;;;;;;1.68;100.00;97737.03;10347087;28;20050;-64
2021/12/07 16:18:49;;;;;;;8.13;6.88;;;;;;;1.66;100.00;97747.75;10345466;28;20069;-65
2021/12/07 16:23:55;;;;;;;11.73;7.10;;;;;;;1.64;100.00;97738.25;10346813;28;20164;-62
2021/12/07 16:29:01;;;;;;;9.13;7.03;;;;;;;1.63;100.00;97733.91;10346643;28;20584;-59
2021/12/07 16:34:04;;;;;;;9.30;6.95;;;;;;;1.62;100.00;97719.78;10348466;28;20049;-62
2021/12/07 16:39:08;;;;;;;12.73;10.35;;;;;;;1.57;100.00;97721.97;10347793;28;20983;-61
2021/12/07 16:44:13;;;;;;;12.32;9.75;;;;;;;1.58;100.00;97723.66;10346350;28;20069;-65
2021/12/07 16:49:16;;;;;;;9.38;6.90;;;;;;;1.59;100.00;97719.19;10344136;28;20050;-59
2021/12/07 16:54:19;;;;;;;5.78;4.93;;;;;;;1.55;100.00;97715.91;10346372;28;20172;-59
2021/12/07 16:59:23;;;;;;;6.22;4.95;;;;;;;1.55;100.00;97721.22;10345802;28;20057;-55
2021/12/07 17:04:26;;;;;;;7.78;5.53;;;;;;;1.56;100.00;97724.75;10345592;28;20048;-60
2021/12/07 17:09:31;;;;;;;8.05;5.60;;;;;;;1.53;100.00;97716.06;10345366;28;20506;-58
2021/12/07 17:14:36;;;;;;;8.10;6.22;;;;;;;1.50;100.00;97710.97;10345561;28;20046;-63
2021/12/07 17:19:39;;;;;;;11.68;8.40;;;;;;;1.53;100.00;97705.44;10347129;28;20057;-65
2021/12/07 17:24:42;;;;;;;9.25;6.82;;;;;;;1.51;100.00;97696.75;10358230;28;20046;-66
2021/12/07 17:29:46;;;;;;;9.40;6.55;;;;;;;1.51;100.00;97695.91;10345376;28;20049;-62
2021/12/07 17:34:50;;;;;;;13.18;8.32;;;;;;;1.49;100.00;97693.34;10344177;28;20080;-64
2021/12/07 17:39:53;;;;;;;18.70;10.43;;;;;;;1.47;100.00;97689.16;10344899;28;20046;-64
2021/12/07 17:44:57;;;;;;;14.82;8.77;;;;;;;1.42;100.00;97681.56;10344683;28;20049;-62
2021/12/07 17:50:01;;;;;;;10.07;6.72;;;;;;;1.42;100.00;97681.56;10346007;28;20518;-64
2021/12/07 17:55:06;;;;;;;8.75;6.50;;;;;;;1.43;100.00;97690.34;10350967;28;20049;-65
2021/12/07 18:00:15;;;;;;;8.43;6.50;;;;;;;1.42;100.00;97681.56;10352323;28;20149;-64
2021/12/07 18:05:18;;;;;;;19.65;11.75;;;;;;;1.43;100.00;97669.13;10352848;28;20058;-66
2021/12/07 18:10:23;;;;;;;10.57;7.63;;;;;;;1.36;100.00;97671.41;10352537;28;20046;-64
2021/12/07 18:15:30;;;;;;;15.73;11.05;;;;;;;1.31;100.00;97652.38;10348898;28;20054;-66
2021/12/07 18:20:39;;;;;;;11.55;7.90;;;;;;;1.32;100.00;97651.41;10353828;28;20429;-64
2021/12/07 18:25:44;;;;;;;10.82;6.95;;;;;;;1.34;100.00;97652.13;10350790;28;20507;-62
2021/12/07 18:30:52;;;;;;;9.88;6.63;;;;;;;1.36;100.00;97650.19;10353763;28;20046;-66
2021/12/07 18:35:58;;;;;;;12.23;6.88;;;;;;;1.37;100.00;97652.72;10366957;28;20104;-63
2021/12/07 18:41:04;;;;;;;7.75;6.05;;;;;;;1.37;100.00;97625.31;10374281;28;20081;-61
2021/12/07 18:46:10;;;;;;;9.55;6.32;;;;;;;1.35;100.00;97621.97;10351971;28;20060;-67
2021/12/07 18:51:16;;;;;;;9.32;5.75;;;;;;;1.33;100.00;97615.94;10352501;28;20445;-68
2021/12/07 18:56:21;;;;;;;10.25;6.15;;;;;;;1.30;100.00;97624.16;10350899;28;20050;-67
2021/12/07 19:01:27;;;;;;;10.90;6.57;;;;;;;1.22;100.00;97612.34;10347519;28;20446;-64
2021/12/07 19:06:31;;;;;;;8.65;6.25;;;;;;;1.14;100.00;97604.13;10352353;28;20049;-68
2021/12/07 19:11:38;;;;;;;10.25;6.72;;;;;;;1.01;100.00;97598.97;10367947;28;20065;-58
2021/12/07 19:16:44;;;;;;;9.05;7.28;;;;;;;0.96;100.00;97592.34;10353350;28;20128;-61
2021/12/07 19:21:47;;;;;;;12.55;7.18;;;;;;;0.84;100.00;97589.69;10353290;28;20243;-65
2021/12/07 19:26:51;;;;;;;10.55;7.00;;;;;;;0.76;100.00;97584.16;10355922;28;20057;-70
2021/12/07 19:31:56;;;;;;;13.90;8.07;;;;;;;0.65;100.00;97578.84;10003655;28;10000400;-66
2021/12/07 19:37:03;;;;;;;11.95;7.47;;;;;;;0.54;100.00;97580.50;10353684;28;20052;-67
2021/12/07 19:42:06;;;;;;;12.82;8.32;;;;;;;0.44;100.00;97584.84;10351289;28;20062;-66
2021/12/07 19:47:11;;;;;;;13.18;8.02;;;;;;;0.38;100.00;97587.97;10350137;28;20050;-67
2021/12/07 19:52:14;;;;;;;14.18;8.90;;;;;;;0.30;100.00;97591.19;10366200;28;20056;-67
2021/12/07 19:57:18;;;;;;;14.32;9.00;;;;;;;0.26;100.00;97590.59;10350540;28;20050;-67
2021/12/07 20:02:22;;;;;;;16.52;8.90;;;;;;;0.23;100.00;97560.84;10347566;28;20046;-68
2021/12/07 20:07:25;;;;;;;14.38;8.90;;;;;;;0.21;100.00;97566.25;10352062;28;20053;-67
2021/12/07 20:12:29;;;;;;;12.30;8.68;;;;;;;0.15;100.00;97570.22;10345664;28;20048;-67
2021/12/07 20:17:33;;;;;;;14.27;9.48;;;;;;;0.11;100.00;97568.78;10348088;28;20042;-68
2021/12/07 20:22:37;;;;;;;18.25;9.50;;;;;;;0.05;100.00;97555.97;10350223;28;20053;-64
2021/12/07 20:27:40;;;;;;;20.17;11.00;;;;;;;0.02;100.00;97547.44;10351301;28;20502;-65
2021/12/07 20:32:44;;;;;;;18.42;10.63;;;;;;;-0.02;100.00;97529.13;10351284;28;20125;-69
2021/12/07 20:37:47;;;;;;;17.92;10.27;;;;;;;-0.08;100.00;97521.66;10347310;28;20168;-66
2021/12/07 20:42:55;;;;;;;18.63;9.90;;;;;;;-0.15;100.00;97512.47;10369410;28;20049;-65
2021/12/07 20:48:00;;;;;;;22.48;11.07;;;;;;;-0.23;100.00;97517.53;10346802;28;20060;-63
2021/12/07 20:53:03;;;;;;;23.17;10.85;;;;;;;-0.26;100.00;97501.84;10363156;28;20042;-66
2021/12/07 20:58:08;;;;;;;18.13;10.65;;;;;;;-0.31;100.00;97494.28;10347516;28;20064;-64
2021/12/07 21:03:13;;;;;;;20.60;12.43;;;;;;;-0.36;100.00;97488.50;10347737;28;20042;-65
2021/12/07 21:08:16;;;;;;;24.08;12.77;;;;;;;-0.46;100.00;97475.09;10345368;28;20600;-65
2021/12/07 21:13:19;;;;;;;20.02;13.73;;;;;;;-0.48;100.00;97466.44;10347659;28;20046;-66
2021/12/07 21:18:24;;;;;;;23.08;15.40;;;;;;;-0.51;100.00;97453.44;10347726;28;20057;-66
2021/12/07 21:23:27;;;;;;;24.95;14.73;;;;;;;-0.52;100.00;97441.16;10346386;28;20494;-65
2021/12/07 21:28:30;;;;;;;26.23;15.77;;;;;;;-0.55;100.00;97433.47;10346743;28;20131;-64
2021/12/07 21:33:35;;;;;;;26.75;16.88;;;;;;;-0.57;100.00;97427.44;10347924;28;20489;-65
2021/12/07 21:38:39;;;;;;;28.15;17.10;;;;;;;-0.58;100.00;97420.47;10344979;28;20050;-64
2021/12/07 21:50:37;;;;;;;30.48;18.17;;;;;;;-0.60;100.00;97412.66;10347587;28;20042;-63
2021/12/07 21:55:43;;;;;;;33.80;18.27;;;;;;;-0.59;100.00;97405.56;10347376;28;20469;-61
2021/12/07 22:00:46;;;;;;;34.50;20.08;;;;;;;-0.59;100.00;97397.63;10346747;28;20156;-64
2021/12/07 22:05:51;;;;;;;35.80;19.08;;;;;;;-0.60;100.00;97380.06;10347539;28;20037;-64
2021/12/07 22:10:54;;;;;;;36.35;18.65;;;;;;;-0.60;100.00;97388.00;10351814;28;20073;-62
2021/12/07 22:15:57;;;;;;;28.50;16.40;;;;;;;-0.60;100.00;97372.13;10383288;28;20073;-64
2021/12/07 22:21:02;;;;;;;28.90;15.93;;;;;;;-0.59;100.00;97363.22;10373011;28;20128;-62
2021/12/07 22:26:05;;;;;;;34.25;16.92;;;;;;;-0.59;100.00;97353.50;10353533;28;20050;-63
2021/12/07 22:31:08;;;;;;;29.48;16.90;;;;;;;-0.54;100.00;97350.50;10345862;28;20049;-63
2021/12/07 22:36:13;;;;;;;31.75;16.88;;;;;;;-0.50;100.00;97326.34;10346547;28;20184;-63
2021/12/07 22:41:16;;;;;;;29.42;15.63;;;;;;;-0.47;100.00;97333.19;10353269;28;20107;-63
2021/12/07 22:46:19;;;;;;;31.25;16.35;;;;;;;-0.43;100.00;97336.44;10351066;28;20045;-64
2021/12/07 22:51:24;;;;;;;24.23;14.68;;;;;;;-0.39;100.00;97338.72;10351471;28;20057;-63
2021/12/07 22:56:27;;;;;;;28.77;14.50;;;;;;;-0.35;100.00;97337.53;10353091;28;20137;-64
2021/12/07 23:01:30;;;;;;;25.40;13.73;;;;;;;-0.32;100.00;97339.94;10367057;28;20050;-63
2021/12/07 23:06:35;;;;;;;24.65;13.23;;;;;;;-0.24;100.00;97335.84;10353269;28;20041;-63
2021/12/07 23:11:39;;;;;;;23.52;12.68;;;;;;;-0.22;100.00;97328.63;10352136;28;20038;-65
2021/12/07 23:16:46;;;;;;;30.83;13.57;;;;;;;-0.21;100.00;97322.38;10365695;28;20191;-66
2021/12/07 23:21:51;;;;;;;25.48;12.75;;;;;;;-0.21;100.00;97314.44;10352186;28;20049;-63
2021/12/07 23:26:56;;;;;;;26.67;12.10;;;;;;;-0.21;100.00;97302.03;10352499;28;20046;-64
2021/12/07 23:31:59;;;;;;;22.00;11.70;;;;;;;-0.21;100.00;97288.78;10350558;28;20053;-60
2021/12/07 23:37:04;;;;;;;19.23;11.13;;;;;;;-0.19;100.00;97281.56;10351975;28;20054;-61
2021/12/07 23:42:08;;;;;;;22.42;10.57;;;;;;;-0.18;100.00;97262.09;10351298;28;20044;-64
2021/12/07 23:47:11;;;;;;;20.73;11.07;;;;;;;-0.15;100.00;97247.75;10347876;28;20056;-60
2021/12/07 23:52:15;;;;;;;20.92;10.48;;;;;;;-0.13;100.00;97242.34;10350087;28;20046;-61
2021/12/07 23:57:18;;;;;;;18.67;10.60;;;;;;;-0.11;100.00;97229.81;10350749;28;20062;-62
